createdAt,value
2023-03-06T00:00:58.163Z,8.55
2023-03-06T00:04:30.221Z,7.97
2023-03-06T00:08:02.234Z,5.47
2023-03-06T00:11:34.548Z,4.93
2023-03-06T00:15:08.384Z,4.85
2023-03-06T00:18:40.424Z,4.33
2023-03-06T00:22:15.840Z,4.00
2023-03-06T00:25:48.113Z,4.05
2023-03-06T00:29:22.300Z,4.32
2023-03-06T00:32:54.575Z,4.13
2023-03-06T00:36:26.575Z,4.70
2023-03-06T00:39:59.057Z,4.28
2023-03-06T00:43:33.578Z,4.30
2023-03-06T00:47:05.763Z,4.22
2023-03-06T00:50:37.626Z,4.60
2023-03-06T00:54:09.832Z,4.47
2023-03-06T00:57:41.698Z,3.78
2023-03-06T01:01:13.877Z,5.10
2023-03-06T01:04:45.696Z,3.95
2023-03-06T01:08:17.921Z,4.70
2023-03-06T01:11:50.367Z,4.53
2023-03-06T01:15:22.645Z,4.75
2023-03-06T01:18:54.738Z,4.20
2023-03-06T01:22:26.499Z,4.28
2023-03-06T01:25:59.069Z,5.15
2023-03-06T01:29:30.916Z,4.23
2023-03-06T01:33:05.299Z,4.88
2023-03-06T01:36:37.405Z,4.90
2023-03-06T01:40:11.305Z,4.35
2023-03-06T01:43:47.431Z,5.13
2023-03-06T01:47:19.725Z,6.00
2023-03-06T01:50:55.010Z,6.13
2023-03-06T01:54:32.978Z,4.60
2023-03-06T01:58:08.918Z,5.88
2023-03-06T02:01:41.611Z,6.70
2023-03-06T02:05:14.023Z,5.40
2023-03-06T02:08:49.003Z,4.72
2023-03-06T02:12:22.218Z,3.88
2023-03-06T02:15:54.074Z,5.63
2023-03-06T02:20:02.441Z,4.87
2023-03-06T02:24:06.193Z,3.92
2023-03-06T02:27:38.740Z,4.28
2023-03-06T02:31:21.385Z,4.03
2023-03-06T02:34:56.991Z,5.30
2023-03-06T02:38:37.002Z,5.25
2023-03-06T02:42:09.859Z,4.33
2023-03-06T02:45:45.510Z,5.13
2023-03-06T02:49:17.665Z,4.70
2023-03-06T02:52:49.516Z,4.78
2023-03-06T02:56:21.677Z,4.47
2023-03-06T02:59:53.905Z,4.68
2023-03-06T03:03:26.019Z,4.43
2023-03-06T03:06:57.810Z,4.07
2023-03-06T03:10:30.015Z,5.03
2023-03-06T03:14:01.990Z,5.70
2023-03-06T03:17:38.506Z,5.73
2023-03-06T03:21:14.727Z,5.32
2023-03-06T03:24:48.772Z,5.15
2023-03-06T03:28:20.728Z,6.35
2023-03-06T03:31:52.848Z,4.93
2023-03-06T03:35:25.055Z,5.75
2023-03-06T03:38:57.779Z,4.75
2023-03-06T03:42:30.069Z,5.47
2023-03-06T03:46:02.182Z,4.93
2023-03-06T03:49:34.416Z,5.80
2023-03-06T03:53:06.624Z,6.37
2023-03-06T03:56:40.347Z,5.57
2023-03-06T04:00:16.442Z,6.03
2023-03-06T04:03:48.573Z,6.10
2023-03-06T04:07:20.291Z,5.93
2023-03-06T04:10:53.838Z,6.00
2023-03-06T04:14:25.719Z,5.55
2023-03-06T04:17:58.056Z,5.50
2023-03-06T04:21:29.980Z,5.85
2023-03-06T04:25:01.960Z,5.68
2023-03-06T04:28:33.755Z,5.00
2023-03-06T04:32:06.247Z,4.85
2023-03-06T04:35:38.557Z,4.30
2023-03-06T04:39:12.912Z,4.43
2023-03-06T04:42:44.756Z,3.77
2023-03-06T04:46:17.172Z,4.25
2023-03-06T04:49:49.241Z,4.45
2023-03-06T04:53:24.269Z,4.40
2023-03-06T04:56:56.250Z,3.58
2023-03-06T05:00:33.443Z,3.05
2023-03-06T05:04:05.602Z,4.97
2023-03-06T05:07:38.676Z,2.00
2023-03-06T05:11:10.858Z,1.98
2023-03-06T05:14:43.991Z,1.30
2023-03-06T05:18:16.932Z,1.80
2023-03-06T05:21:49.248Z,1.83
2023-03-06T05:25:21.099Z,1.50
2023-03-06T05:28:54.181Z,0.80
2023-03-06T05:32:28.693Z,0.32
2023-03-06T05:36:01.020Z,0.57
2023-03-06T05:39:33.158Z,0.40
2023-03-06T05:43:08.328Z,0.22
2023-03-06T05:46:40.552Z,0.40
2023-03-06T05:50:15.232Z,0.88
2023-03-06T05:53:47.665Z,0.50
2023-03-06T05:57:20.731Z,0.43
2023-03-06T06:00:53.423Z,0.47
2023-03-06T06:04:26.417Z,0.50
2023-03-06T06:07:58.275Z,0.10
2023-03-06T06:11:30.588Z,0.30
2023-03-06T06:15:02.358Z,0.60
2023-03-06T06:18:34.549Z,0.60
2023-03-06T06:22:06.522Z,0.30
2023-03-06T06:25:38.703Z,0.20
2023-03-06T06:29:11.986Z,0.93
2023-03-06T06:32:44.192Z,0.60
2023-03-06T06:36:18.385Z,0.47
2023-03-06T06:39:50.422Z,1.00
2023-03-06T06:43:23.028Z,2.47
2023-03-06T06:47:22.446Z,1.95
2023-03-06T06:50:55.204Z,1.50
2023-03-06T06:54:27.516Z,0.60
2023-03-06T06:57:59.599Z,0.50
2023-03-06T07:01:32.531Z,0.95
2023-03-06T07:05:05.637Z,0.70
2023-03-06T07:08:38.031Z,2.00
2023-03-06T07:12:09.797Z,1.85
2023-03-06T07:15:42.108Z,2.47
2023-03-06T07:19:14.244Z,2.78
2023-03-06T07:22:51.256Z,2.55
2023-03-06T07:26:27.900Z,3.60
2023-03-06T07:30:00.333Z,2.63
2023-03-06T07:33:32.488Z,1.52
2023-03-06T07:37:04.703Z,0.85
2023-03-06T07:40:36.789Z,0.97
2023-03-06T07:44:08.982Z,0.82
2023-03-06T07:47:41.170Z,0.90
2023-03-06T07:51:21.841Z,0.87
2023-03-06T07:54:53.996Z,0.65
2023-03-06T07:58:26.295Z,1.15
2023-03-06T08:01:58.341Z,1.27
2023-03-06T08:05:30.557Z,1.83
2023-03-06T08:09:02.377Z,2.15
2023-03-06T08:12:34.832Z,2.08
2023-03-06T08:16:07.364Z,1.13
2023-03-06T08:19:39.880Z,1.60
2023-03-06T08:23:11.995Z,0.95
2023-03-06T08:26:43.757Z,0.87
2023-03-06T08:30:16.206Z,1.40
2023-03-06T08:33:48.000Z,0.98
2023-03-06T08:37:20.320Z,0.70
2023-03-06T08:40:55.256Z,1.73
2023-03-06T08:44:27.055Z,0.98
2023-03-06T08:47:59.228Z,1.00
2023-03-06T08:51:31.250Z,52.00
2023-03-06T08:55:04.067Z,19.83
2023-03-06T08:58:37.300Z,3.65
2023-03-06T09:02:12.861Z,0.90
2023-03-06T09:05:45.085Z,1.60
2023-03-06T09:09:16.983Z,1.55
2023-03-06T09:12:52.556Z,1.53
2023-03-06T09:16:26.461Z,1.30
2023-03-06T09:19:58.567Z,1.42
2023-03-06T09:23:31.430Z,1.77
2023-03-06T09:27:03.492Z,1.30
2023-03-06T09:30:35.698Z,1.60
2023-03-06T09:34:10.563Z,3.78
2023-03-06T09:37:43.951Z,3.60
2023-03-06T09:41:18.465Z,7.07
2023-03-06T09:44:55.767Z,3.22
2023-03-06T09:48:47.438Z,3.97
2023-03-06T09:52:40.766Z,4.82
2023-03-06T09:56:24.304Z,2.20
2023-03-06T10:00:11.706Z,5.70
2023-03-06T10:03:53.014Z,4.83
2023-03-06T10:07:45.553Z,2.95
2023-03-06T10:11:23.763Z,4.65
2023-03-06T10:15:13.819Z,4.13
2023-03-06T10:18:46.159Z,2.50
2023-03-06T10:22:43.749Z,4.30
2023-03-06T10:26:26.765Z,4.10
2023-03-06T10:30:13.463Z,4.82
2023-03-06T10:33:55.271Z,4.82
2023-03-06T10:37:31.015Z,5.28
2023-03-06T10:41:27.620Z,6.40
2023-03-06T10:45:26.058Z,4.63
2023-03-06T10:49:20.040Z,4.70
2023-03-06T10:53:00.805Z,3.90
2023-03-06T10:56:39.628Z,4.85
2023-03-06T11:00:37.929Z,4.50
2023-03-06T11:04:28.667Z,5.03
2023-03-06T11:08:00.858Z,5.68
2023-03-06T11:11:37.740Z,6.22
2023-03-06T11:15:18.578Z,5.60
2023-03-06T11:19:05.830Z,6.70
2023-03-06T11:22:39.897Z,5.63
2023-03-06T11:26:17.879Z,4.75
2023-03-06T11:29:51.702Z,4.80
2023-03-06T11:33:35.248Z,4.65
2023-03-06T11:37:16.360Z,5.20
2023-03-06T11:41:00.988Z,4.47
2023-03-06T11:45:02.850Z,4.47
2023-03-06T11:48:42.308Z,3.40
2023-03-06T11:52:21.967Z,4.60
2023-03-06T11:56:12.693Z,3.23
2023-03-06T12:00:26.303Z,4.43
2023-03-06T12:04:24.933Z,3.05
2023-03-06T12:08:12.855Z,2.97
2023-03-06T12:11:50.580Z,4.32
2023-03-06T12:15:34.388Z,4.28
2023-03-06T12:19:38.415Z,4.30
2023-03-06T12:23:16.743Z,4.55
2023-03-06T12:27:12.205Z,3.67
2023-03-06T12:31:05.025Z,4.28
2023-03-06T12:34:54.793Z,3.53
2023-03-06T12:38:56.174Z,3.85
2023-03-06T12:42:40.917Z,3.78
2023-03-06T12:46:17.653Z,2.77
2023-03-06T12:50:29.525Z,2.92
2023-03-06T12:54:03.283Z,2.47
2023-03-06T12:57:35.375Z,3.17
2023-03-06T13:01:36.158Z,3.88
2023-03-06T13:05:14.369Z,5.03
2023-03-06T13:09:04.941Z,2.25
2023-03-06T13:12:56.542Z,5.10
2023-03-06T13:16:34.358Z,3.15
2023-03-06T13:20:15.726Z,2.53
2023-03-06T13:23:51.474Z,2.60
2023-03-06T13:27:54.408Z,2.40
2023-03-06T13:31:34.240Z,2.63
2023-03-06T13:35:35.836Z,2.37
2023-03-06T13:39:12.565Z,3.08
2023-03-06T13:42:44.674Z,2.80
2023-03-06T13:46:30.942Z,2.17
2023-03-06T13:50:37.857Z,2.27
2023-03-06T13:54:53.322Z,2.75
2023-03-06T13:58:34.206Z,3.45
2023-03-06T14:02:37.083Z,3.43
2023-03-06T14:06:42.334Z,3.05
2023-03-06T14:10:19.109Z,2.97
2023-03-06T14:13:54.525Z,2.83
2023-03-06T14:17:32.268Z,3.30
2023-03-06T14:21:13.388Z,2.28
2023-03-06T14:25:04.529Z,2.05
2023-03-06T14:28:37.420Z,2.50
2023-03-06T14:32:10.904Z,2.72
2023-03-06T14:35:52.089Z,2.70
2023-03-06T14:39:36.312Z,2.90
2023-03-06T14:43:27.251Z,3.20
2023-03-06T14:47:32.164Z,2.20
2023-03-06T14:51:07.836Z,2.17
2023-03-06T14:54:44.249Z,2.72
2023-03-06T14:58:26.534Z,2.65
2023-03-06T15:02:05.145Z,2.45
2023-03-06T15:05:37.750Z,2.27
2023-03-06T15:09:24.430Z,3.15
2023-03-06T15:12:56.593Z,2.88
2023-03-06T15:16:30.640Z,3.73
2023-03-06T15:20:02.691Z,3.58
2023-03-06T15:23:41.194Z,3.90
2023-03-06T15:27:22.533Z,4.13
2023-03-06T15:31:19.586Z,3.95
2023-03-06T15:35:28.855Z,3.53
2023-03-06T15:39:01.142Z,4.13
2023-03-06T15:42:34.890Z,3.10
2023-03-06T15:46:08.098Z,3.58
2023-03-06T15:49:40.356Z,3.30
2023-03-06T15:53:14.878Z,3.53
2023-03-06T15:56:49.129Z,4.20
2023-03-06T16:00:28.542Z,3.20
2023-03-06T16:04:00.974Z,3.30
2023-03-06T16:07:32.740Z,3.15
2023-03-06T16:11:05.133Z,3.55
2023-03-06T16:14:36.854Z,3.35
2023-03-06T16:18:10.835Z,3.47
2023-03-06T16:21:44.353Z,3.45
2023-03-06T16:25:18.226Z,3.97
2023-03-06T16:28:50.360Z,3.57
2023-03-06T16:32:22.203Z,4.32
2023-03-06T16:35:54.275Z,4.63
2023-03-06T16:39:26.099Z,4.13
2023-03-06T16:42:58.223Z,4.72
2023-03-06T16:46:30.852Z,5.00
2023-03-06T16:50:03.848Z,5.00
2023-03-06T16:53:36.086Z,5.73
2023-03-06T16:57:13.507Z,5.97
2023-03-06T17:00:45.545Z,6.28
2023-03-06T17:04:17.405Z,6.43
2023-03-06T17:07:50.429Z,4.72
2023-03-06T17:11:25.312Z,5.45
2023-03-06T17:14:57.355Z,5.97
2023-03-06T17:18:29.976Z,7.90
2023-03-06T17:22:02.062Z,11.20
2023-03-06T17:25:35.181Z,12.48
2023-03-06T17:29:07.510Z,8.77
2023-03-06T17:32:41.162Z,7.95
2023-03-06T17:36:14.833Z,8.82
2023-03-06T17:39:47.061Z,20.80
2023-03-06T17:43:19.145Z,9.70
2023-03-06T17:46:51.276Z,6.10
2023-03-06T17:50:23.394Z,7.13
2023-03-06T17:53:55.798Z,5.57
2023-03-06T17:57:28.601Z,7.20
2023-03-06T18:01:08.864Z,5.55
2023-03-06T18:04:41.446Z,13.00
2023-03-06T18:08:14.150Z,12.15
2023-03-06T18:11:46.074Z,10.05
2023-03-06T18:15:18.597Z,8.70
2023-03-06T18:18:55.755Z,8.05
2023-03-06T18:22:28.065Z,7.32
2023-03-06T18:26:27.533Z,7.63
2023-03-06T18:29:59.863Z,8.60
2023-03-06T18:33:31.766Z,8.77
2023-03-06T18:37:03.796Z,10.35
2023-03-06T18:40:35.947Z,10.27
2023-03-06T18:44:07.961Z,9.50
2023-03-06T18:47:41.290Z,10.95
2023-03-06T18:51:14.195Z,7.47
2023-03-06T18:54:49.863Z,9.07
2023-03-06T18:58:22.411Z,10.13
2023-03-06T19:01:57.627Z,9.50
2023-03-06T19:05:30.023Z,10.77
2023-03-06T19:09:02.449Z,10.57
2023-03-06T19:12:35.511Z,11.85
2023-03-06T19:16:08.821Z,15.53
2023-03-06T19:19:40.687Z,14.82
2023-03-06T19:23:13.407Z,12.70
2023-03-06T19:26:45.310Z,13.13
2023-03-06T19:30:17.749Z,14.85
2023-03-06T19:33:50.147Z,11.80
2023-03-06T19:37:22.448Z,10.23
2023-03-06T19:40:54.622Z,10.75
2023-03-06T19:44:26.683Z,10.05
2023-03-06T19:48:00.895Z,9.15
2023-03-06T19:51:32.789Z,9.87
2023-03-06T19:55:05.639Z,10.50
2023-03-06T19:58:38.479Z,10.75
2023-03-06T20:02:11.461Z,10.00
2023-03-06T20:05:49.438Z,11.20
2023-03-06T20:09:21.210Z,12.32
2023-03-06T20:12:53.361Z,13.13
2023-03-06T20:16:27.978Z,12.30
2023-03-06T20:20:00.621Z,13.73
2023-03-06T20:23:34.220Z,14.70
2023-03-06T20:27:06.122Z,12.70
2023-03-06T20:30:38.668Z,16.23
2023-03-06T20:34:11.113Z,14.50
2023-03-06T20:37:43.107Z,16.93
2023-03-06T20:41:18.844Z,15.48
2023-03-06T20:44:50.830Z,17.52
2023-03-06T20:48:22.632Z,15.83
2023-03-06T20:51:56.049Z,13.02
2023-03-06T20:55:28.166Z,13.30
2023-03-06T20:59:00.079Z,12.77
2023-03-06T21:02:32.681Z,11.67
2023-03-06T21:06:05.145Z,21.80
2023-03-06T21:09:37.911Z,16.38
2023-03-06T21:13:10.240Z,13.23
2023-03-06T21:16:42.535Z,15.27
2023-03-06T21:20:14.779Z,13.77
2023-03-06T21:23:49.712Z,12.40
2023-03-06T21:27:24.816Z,12.27
2023-03-06T21:31:01.198Z,11.63
2023-03-06T21:34:33.296Z,15.02
2023-03-06T21:38:05.325Z,14.10
2023-03-06T21:41:38.175Z,11.10
2023-03-06T21:45:10.881Z,12.68
2023-03-06T21:48:42.650Z,13.00
2023-03-06T21:52:14.964Z,12.30
2023-03-06T21:55:47.045Z,12.82
2023-03-06T21:59:19.150Z,13.00
2023-03-06T22:02:54.290Z,12.35
2023-03-06T22:06:30.340Z,11.98
2023-03-06T22:10:02.814Z,11.75
2023-03-06T22:13:34.584Z,12.83
2023-03-06T22:17:06.768Z,11.80
2023-03-06T22:20:39.629Z,12.70
2023-03-06T22:24:11.566Z,13.37
2023-03-06T22:27:45.646Z,12.65
2023-03-06T22:31:20.095Z,12.02
2023-03-06T22:34:57.308Z,14.57
2023-03-06T22:38:29.508Z,12.50
2023-03-06T22:42:01.350Z,12.43
2023-03-06T22:45:34.753Z,12.23
2023-03-06T22:49:06.517Z,12.63
2023-03-06T22:52:38.910Z,12.30
2023-03-06T22:56:13.104Z,12.38
2023-03-06T22:59:45.252Z,9.80
2023-03-06T23:03:17.415Z,13.90
2023-03-06T23:06:49.285Z,12.10
2023-03-06T23:10:21.377Z,11.03
2023-03-06T23:13:53.755Z,10.98
2023-03-06T23:17:26.086Z,9.95
2023-03-06T23:20:58.850Z,9.35
2023-03-06T23:24:32.113Z,8.63
2023-03-06T23:28:04.373Z,8.80
2023-03-06T23:31:36.315Z,8.95
2023-03-06T23:35:08.936Z,7.83
2023-03-06T23:38:41.204Z,8.15
2023-03-06T23:42:13.188Z,7.13
2023-03-06T23:45:53.829Z,8.23
2023-03-06T23:49:26.162Z,9.27
2023-03-06T23:52:57.881Z,8.98
2023-03-06T23:56:30.334Z,9.10
